METAR stanice u blizini

 

LYBE - Beograd / Surčin, Srbija
Ažurirano: 23/02/2020 12:00
Vedro
Vedro
 Pravac vetra JZ
Vetar: JZ 6 km/h
Temperatura: 12°C
Tačka rose: 0°C
Vlažnost: 44%
Pritisak: 1024 hPa
Pregled: Vedro
Vidljivost: greater than 10 km
2020/02/23 11:00 LYBE 231100Z 23003KT 180V270 CAVOK 12/00 Q1024 NOSIG
LYBT - Beograd / Batajnica, Srbija
Ažurirano: 23/02/2020 12:00
Vedro
Vedro
 Pravac vetra J
Vetar: J 7 km/h
Temperatura: 12°C
Tačka rose: 0°C
Vlažnost: 44%
Pritisak: 1024 hPa
Pregled: Vedro
Vidljivost: greater than 10 km
2020/02/23 11:00 LYBT 231100Z 19004KT 160V220 CAVOK 12/00 Q1024 NOSIG
LYVR - Vršac, Srbija
Ažurirano: 23/02/2020 12:00
Vedro
Vedro
 Pravac vetra J
Vetar: J 15 km/h
Temperatura: 12°C
Tačka rose: -2°C
Vlažnost: 38%
Pritisak: 1023 hPa
Pregled: Vedro
Vidljivost: greater than 10 km
2020/02/23 11:00 LYVR 231100Z 17008KT 140V200 CAVOK 12/M02 Q1023 NOSIG
 
LYKV - Lađevci, Srbija
Ažurirano: 23/02/2020 12:00
Vedro
Vedro
 Pravac vetra ISI
Vetar: ISI 2 km/h
Temperatura: 10°C
Tačka rose: -1°C
Vlažnost: 47%
Pritisak: 1025 hPa
Pregled: Vedro
Vidljivost: greater than 10 km
2020/02/23 11:00 LYKV 231100Z 06001KT CAVOK 10/M01 Q1025 NOSIG
LYNI - Niš, Srbija
Ažurirano: 23/02/2020 12:00
Vedro
Vedro
 Pravac vetra varies
Vetar: varies 6 km/h
Temperatura: 9°C
Tačka rose: -2°C
Vlažnost: 46%
Pritisak: 1025 hPa
Pregled: Vedro
Vidljivost: greater than 10 km
2020/02/23 11:00 LYNI 231100Z VRB03KT CAVOK 09/M02 Q1025 NOSIG
BKPR - Priština, Srbija
Ažurirano: 23/02/2020 12:00
Vedro
Vedro
 Pravac vetra varies
Vetar: varies 4 km/h
Temperatura: 11°C
Tačka rose: -4°C
Vlažnost: 35%
Pritisak: 1025 hPa
Pregled: Vedro
Vidljivost: greater than 10 km
2020/02/23 11:00 BKPR 231100Z VRB02KT CAVOK 11/M04 Q1025 NOSIG RMK 17010095
 
LHPP - Pecs / Pogany, Hungary
Ažurirano: 23/02/2020 11:45
Vedro
Vedro
 Pravac vetra Z
Vetar: Z 13 km/h
Temperatura: 10°C
Osećaj hladnoće: 8°C
Tačka rose: 1°C
Vlažnost: 54%
Pritisak: 1023 hPa
Pregled: Vedro
Vidljivost: greater than 10 km
2020/02/23 10:45 LHPP 231045Z 27007KT CAVOK 10/01 Q1023
LHUD - Szeged, Hungary
Ažurirano: 04/07/2019 01:45
NOT Current
Vedro
Vedro
 Pravac vetra S
Vetar: S 7 km/h
Temperatura: 18°C
Tačka rose: 13°C
Vlažnost: 73%
Pritisak: 1019 hPa
Pregled: Vedro
Vidljivost: greater than 10 km
2019/07/03 23:45 LHUD 032345Z 35004KT CAVOK 18/13 Q1019
LRTR - Timisoara, Romania
Ažurirano: 23/02/2020 12:00
Vedro
Vedro
 Pravac vetra JZ
Vetar: JZ 19 km/h
Temperatura: 11°C
Tačka rose: -1°C
Vlažnost: 44%
Pritisak: 1023 hPa
Pregled: Vedro
Vidljivost: greater than 10 km
2020/02/23 11:00 LRTR 231100Z 22010KT CAVOK 11/M01 Q1023
 
LRCV - Craiova, Romania
Ažurirano: 23/02/2020 12:00
Vedro
Vedro
 Pravac vetra Z
Vetar: Z 17 km/h
Temperatura: 11°C
Tačka rose: 0°C
Vlažnost: 47%
Pritisak: 1021 hPa
Pregled: Vedro
Vidljivost: greater than 10 km
2020/02/23 11:00 LRCV 231100Z 27009KT CAVOK 11/M00 Q1021
LBSF - Sofia, Bulgaria
Ažurirano: 23/02/2020 12:00
Vedro
Vedro
 Pravac vetra Z
Vetar: Z 11 km/h
Temperatura: 8°C
Osećaj hladnoće: 6°C
Tačka rose: -3°C
Vlažnost: 46%
Pritisak: 1025 hPa
Pregled: Vedro
Vidljivost: greater than 10 km
2020/02/23 11:00 LBSF 231100Z 28006KT 250V320 CAVOK 08/M03 Q1025 NOSIG
LWSK - Skoplje, Makedonija
Ažurirano: 23/02/2020 12:00
Vedro
Vedro
 Pravac vetra calm
Vetar: Tišina
Temperatura: 8°C
Tačka rose: -3°C
Vlažnost: 46%
Pritisak: 1026 hPa
Pregled: Vedro
Vidljivost: greater than 10 km
2020/02/23 11:00 LWSK 231100Z 00000KT CAVOK 08/M03 Q1026 NOSIG
 
LYPG - Podgorica, Crna Gora
Ažurirano: 23/02/2020 12:00
Vedro
Vedro
 Pravac vetra J
Vetar: J 6 km/h
Temperatura: 13°C
Tačka rose: -6°C
Vlažnost: 26%
Pritisak: 1027 hPa
Pregled: Vedro
Vidljivost: greater than 10 km
2020/02/23 11:00 LYPG 231100Z 17003KT 120V230 CAVOK 13/M06 Q1027 NOSIG
LQSA - Sarajevo, Bosna i Hercegovina
Ažurirano: 23/02/2020 12:00
Partly Cloudy
Partly Cloudy
 Pravac vetra varies
Vetar: varies 4 km/h
Temperatura: 9°C
Tačka rose: -3°C
Vlažnost: 43%
Pritisak: 1024 hPa
Oblaci: Partly Cloudy
Vidljivost: 8 km
2020/02/23 11:00 LQSA 231100Z VRB02KT 8000 NSC 09/M03 Q1024 NOSIG
LDOS - Osijek, Hrvatksa
Ažurirano: 23/02/2020 12:00
Vedro
Vedro
 Pravac vetra JZ
Vetar: JZ 11 km/h
Temperatura: 12°C
Tačka rose: 1°C
Vlažnost: 47%
Pritisak: 1023 hPa
Pregled: Vedro
Vidljivost: greater than 10 km
2020/02/23 11:00 LDOS 231100Z 22006KT CAVOK 12/01 Q1023